< < Back
Terminal Aerodrome Forecast


Current Version              Previous Versions:   1  2  3  4  5  6  7  8  9  

Terminal Aerodrome Forecast

030
FTUS44 KBMX 202300
TAFBHM
TAF
KBHM 202340Z 2100/2124 14004KT P6SM SCT250
     FM211700 21007KT P6SM BKN150=



Latest METAR

015
SAUS70 KWBC 210200 RRD
MTRBHM
METAR KBHM 210153Z 00000KT 10SM SCT250 19/08 A3015 RMK AO2 SLP206
T01890083


USA.gov is the U.S. government's official web portal to all federal, state and local government web resources and services.